Airfield :
LOGIN :

Register | Disclaimer

   EN    FR    IT 

 










Legend :    VFR   Marginal VFR   IFR   Intensive IFR   Very Intensive IFR
Visi :
Ceiling :
>= 8 km
>= 3000ft
5 to 8 km
1000 to 3000 ft
1500m to 5 km
500 to 1000 ft
800 to 1500m
200 to 500 ft
< 800m
< 200 ft
Symbols :   Thunderstorms  Fog  Heavy snow  Heavy precipitations  Wind > 20 kt
SIGMETs :     Misc.  Thunderstorms  Icing  Turbulence  Mountain Waves  Volcanic Ashes






- Airport Elevation : 308 ft
- IATA code : POZ


EPPO - Poznan-Lawica

CURRENT METAR :
  • 040530Z 16005KT CAVOK 21/13 Q1015

EXPIRED METARs :
  • 040500Z 14005KT CAVOK 20/13 Q1015
  • 040430Z 14006KT CAVOK 20/14 Q1015
  • 040330Z 11006KT CAVOK 16/13 Q1015
  • 040300Z 11005KT CAVOK 16/13 Q1015

TAF TAF EPPO
Valid from the 04 at 00:00 until the 05 at 00:00 UTC


032330Z 0400/0424 10004KT CAVOK
BECMG 0408/0411 32010KT
PROB30
TEMPO 0408/0416 BKN040CB
BECMG 0421/0424 VRB02KT



MET'MAP, your aeronautical weather chart ! - Copyright ORBIFLY December 2007 - Disclaimer

ORBIFLY MET'MAP TEAM :

Programming & Development : Alexandra Zaïnal
Original concept : Baudouin d'Aumeries
Technical & hardware support : Manuel Goepfert
Assistance : Marc-Olivier Méhu




SOURCES & CREDITS :

   NOAA